Time;durP1;ratioP1;P1;durP2;ratioP2;P2;SDS_P1;SDS_P2;PMS_P1;PMS_P2;Temp;Humidity;BMP_temperature;BMP_pressure;BME280_temperature;BME280_humidity;BME280_pressure;Samples;Min_cycle;Max_cycle;Signal;HPM_P1;HPM_P2
2021/05/20 00:02:09;;;;;;;0.88;0.40;;;;;;;20.17;47.98;101109.16;5010067;28;20036;-72
2021/05/20 00:04:34;;;;;;;0.47;0.30;;;;;;;20.17;47.49;101119.84;4990610;28;20030;-73
2021/05/20 00:07:00;;;;;;;1.48;0.30;;;;;;;20.17;48.13;101113.63;5001843;28;20293;-73
2021/05/20 00:09:26;;;;;;;2.17;1.23;;;;;;;20.16;48.12;101109.25;5010769;28;20037;-72
2021/05/20 00:11:51;;;;;;;0.40;0.30;;;;;;;20.15;47.89;101116.44;5010979;28;20052;-73
2021/05/20 00:14:16;;;;;;;0.45;0.28;;;;;;;20.15;47.91;101113.75;5008238;28;20045;-73
2021/05/20 00:16:41;;;;;;;0.95;0.40;;;;;;;20.14;47.63;101109.41;5008728;28;20168;-73
2021/05/20 00:19:07;;;;;;;0.65;0.32;;;;;;;20.16;47.76;101117.25;5010883;28;20021;-72
2021/05/20 00:21:33;;;;;;;0.80;0.30;;;;;;;20.15;47.39;101115.59;5010604;28;20392;-73
2021/05/20 00:23:58;;;;;;;0.30;0.30;;;;;;;20.13;47.66;101113.84;5009754;28;20026;-73
2021/05/20 00:26:25;;;;;;;1.38;0.30;;;;;;;20.14;48.07;101122.75;5009668;28;20026;-72
2021/05/20 00:28:50;;;;;;;0.75;0.30;;;;;;;20.14;47.97;101117.41;4993117;28;20041;-72
2021/05/20 00:31:15;;;;;;;0.98;0.40;;;;;;;20.14;47.82;101112.06;5010265;28;20461;-72
2021/05/20 00:33:41;;;;;;;0.65;0.38;;;;;;;20.12;47.63;101114.84;4992928;28;20080;-73
2021/05/20 00:36:06;;;;;;;0.68;0.40;;;;;;;20.12;48.10;101117.50;5010715;28;20500;-73
2021/05/20 00:38:32;;;;;;;0.20;0.20;;;;;;;20.13;48.19;101118.34;5009067;28;20112;-72
2021/05/20 00:41:01;;;;;;;0.57;0.28;;;;;;;20.13;47.99;101121.88;5010365;28;20128;-72
2021/05/20 00:43:27;;;;;;;0.68;0.30;;;;;;;20.12;47.69;101116.66;5010697;28;20033;-72
2021/05/20 00:45:52;;;;;;;0.88;0.40;;;;;;;20.11;47.50;101121.16;5010388;28;20128;-72
2021/05/20 00:48:18;;;;;;;0.40;0.32;;;;;;;20.12;47.90;101124.66;4991885;28;20397;-73
2021/05/20 00:50:43;;;;;;;0.30;0.22;;;;;;;20.12;47.85;101119.34;5010845;28;20033;-72
2021/05/20 00:53:10;;;;;;;0.82;0.40;;;;;;;20.12;47.77;101128.19;5010474;28;20521;-73
2021/05/20 00:55:36;;;;;;;1.67;0.50;;;;;;;20.12;48.02;101130.84;5010664;28;20056;-72
2021/05/20 00:58:02;;;;;;;0.57;0.20;;;;;;;20.12;47.83;101130.00;5009991;28;20492;-72
2021/05/20 01:00:27;;;;;;;0.63;0.20;;;;;;;20.10;47.77;101118.59;5011134;28;20161;-72
2021/05/20 01:02:53;;;;;;;0.95;0.40;;;;;;;20.10;47.52;101132.81;5010523;28;20542;-72
2021/05/20 01:05:18;;;;;;;1.20;0.68;;;;;;;20.08;47.80;101125.91;5009572;28;20030;-72
2021/05/20 01:07:44;;;;;;;0.28;0.20;;;;;;;20.11;47.47;101134.50;5009021;28;20053;-73
2021/05/20 01:10:10;;;;;;;0.82;0.30;;;;;;;20.09;47.88;101127.59;4992974;28;20030;-73
2021/05/20 01:12:36;;;;;;;0.30;0.28;;;;;;;20.11;47.79;101139.84;5005935;28;20026;-72
2021/05/20 01:15:02;;;;;;;0.40;0.30;;;;;;;20.11;47.66;101141.66;5004186;28;20026;-72
2021/05/20 01:17:27;;;;;;;1.00;0.40;;;;;;;20.10;47.35;101146.16;5009472;28;20022;-72
2021/05/20 01:19:53;;;;;;;0.63;0.38;;;;;;;20.10;47.72;101153.28;5010246;28;20071;-73
2021/05/20 01:22:19;;;;;;;0.63;0.40;;;;;;;20.08;47.43;101156.09;5009461;28;20045;-72
2021/05/20 01:24:45;;;;;;;1.27;0.40;;;;;;;20.09;47.96;101160.44;5010498;28;20397;-72
2021/05/20 01:27:11;;;;;;;0.57;0.25;;;;;;;20.08;47.83;101164.09;5008438;28;20044;-73
2021/05/20 01:29:38;;;;;;;2.63;0.30;;;;;;;20.08;47.42;101163.25;4992779;28;20046;-73
2021/05/20 01:32:04;;;;;;;0.38;0.22;;;;;;;20.08;47.55;101164.09;5009758;28;20034;-72
2021/05/20 01:34:32;;;;;;;0.70;0.30;;;;;;;20.07;47.20;101167.75;5009728;28;20121;-72
2021/05/20 01:36:58;;;;;;;0.52;0.30;;;;;;;20.06;47.35;101170.53;5009820;28;20033;-72
2021/05/20 01:39:24;;;;;;;0.30;0.30;;;;;;;20.08;47.48;101171.25;5008768;28;20084;-72
2021/05/20 01:41:49;;;;;;;0.20;0.20;;;;;;;20.07;47.78;101173.09;5009465;28;20216;-72
2021/05/20 01:44:14;;;;;;;0.40;0.30;;;;;;;20.06;47.35;101176.69;5009607;28;20464;-72
2021/05/20 01:46:40;;;;;;;0.47;0.30;;;;;;;20.04;47.50;101176.00;5009621;28;20018;-72
2021/05/20 01:49:09;;;;;;;0.52;0.30;;;;;;;20.04;47.70;101173.31;5009103;28;20109;-72
2021/05/20 01:51:35;;;;;;;0.22;0.20;;;;;;;20.05;47.16;101183.00;5009927;28;20037;-73
2021/05/20 01:54:00;;;;;;;0.25;0.20;;;;;;;20.06;47.24;101183.88;4992406;28;20033;-72
2021/05/20 01:56:25;;;;;;;0.20;0.20;;;;;;;20.04;47.09;101177.81;5008716;28;20041;-72
2021/05/20 01:58:51;;;;;;;0.65;0.30;;;;;;;20.05;47.65;101182.19;4991476;28;20342;-73
2021/05/20 02:01:16;;;;;;;0.57;0.30;;;;;;;20.04;47.68;101172.47;5009608;28;20073;-73
2021/05/20 02:03:42;;;;;;;1.05;0.30;;;;;;;20.04;47.87;101180.47;4996762;28;20018;-72
2021/05/20 02:06:08;;;;;;;0.68;0.30;;;;;;;20.04;47.63;101185.81;5008962;28;20238;-72
2021/05/20 02:08:34;;;;;;;0.70;0.28;;;;;;;20.04;47.39;101183.16;5009770;28;20079;-72
2021/05/20 02:11:00;;;;;;;0.20;0.20;;;;;;;20.03;47.21;101176.09;5009734;28;20120;-72
2021/05/20 02:13:26;;;;;;;0.60;0.35;;;;;;;20.03;47.30;101176.09;5009726;28;20152;-73
2021/05/20 02:15:51;;;;;;;0.20;0.20;;;;;;;20.02;47.09;101169.91;5008591;28;20022;-72
2021/05/20 02:18:17;;;;;;;0.28;0.28;;;;;;;20.02;47.19;101174.41;5009589;28;20037;-72
2021/05/20 02:20:44;;;;;;;0.30;0.25;;;;;;;20.01;47.66;101162.88;5009668;28;20034;-73
2021/05/20 02:23:09;;;;;;;0.20;0.20;;;;;;;20.01;47.87;101168.22;5009040;28;20037;-73
2021/05/20 02:25:35;;;;;;;0.57;0.20;;;;;;;20.01;47.20;101165.56;5009336;28;20105;-72
2021/05/20 02:28:00;;;;;;;1.17;0.43;;;;;;;20.00;47.36;101166.53;5008805;28;20026;-73
2021/05/20 02:30:26;;;;;;;0.93;0.30;;;;;;;20.01;47.64;101170.06;5008759;28;20034;-72
2021/05/20 02:32:51;;;;;;;0.43;0.30;;;;;;;20.01;47.50;101170.06;4989914;28;20027;-72
2021/05/20 02:35:17;;;;;;;0.43;0.30;;;;;;;20.00;47.48;101163.88;5004995;28;20034;-73
2021/05/20 02:37:42;;;;;;;0.63;0.30;;;;;;;20.01;47.49;101170.06;5008951;28;20117;-73
2021/05/20 02:40:09;;;;;;;0.77;0.35;;;;;;;20.00;47.45;101169.22;5008342;28;20054;-73
2021/05/20 02:42:35;;;;;;;0.20;0.20;;;;;;;20.01;46.83;101178.06;5005577;28;20117;-73
2021/05/20 02:45:01;;;;;;;0.55;0.30;;;;;;;19.99;47.82;101177.31;5008877;28;20097;-73
2021/05/20 02:47:26;;;;;;;0.88;0.30;;;;;;;20.00;47.27;101177.22;5009513;28;20339;-72
2021/05/20 02:49:52;;;;;;;0.95;0.32;;;;;;;19.99;47.59;101178.16;5012534;28;20108;-73
2021/05/20 02:52:20;;;;;;;0.30;0.30;;;;;;;20.00;47.25;101179.88;5011290;28;20153;-72
2021/05/20 02:54:46;;;;;;;0.30;0.30;;;;;;;19.99;47.26;101169.31;4995582;28;20018;-73
2021/05/20 02:57:11;;;;;;;0.68;0.40;;;;;;;19.98;47.56;101173.81;5010607;28;20034;-73
2021/05/20 02:59:37;;;;;;;0.28;0.20;;;;;;;20.00;47.74;101171.00;5012832;28;20101;-72
2021/05/20 03:02:04;;;;;;;0.20;0.20;;;;;;;20.00;47.27;101173.66;5012396;28;20033;-73
2021/05/20 03:04:39;;;;;;;0.57;0.25;;;;;;;19.99;47.22;101179.97;5011503;28;20500;-73
2021/05/20 03:07:06;;;;;;;0.32;0.30;;;;;;;19.99;47.35;101175.50;5011535;28;20033;-72
2021/05/20 03:09:32;;;;;;;0.20;0.20;;;;;;;19.99;47.17;101175.50;5011282;28;20029;-73
2021/05/20 03:11:59;;;;;;;0.32;0.20;;;;;;;20.00;47.45;101179.88;5012084;28;20658;-72
2021/05/20 03:14:25;;;;;;;0.43;0.30;;;;;;;19.99;47.59;101171.97;5012230;28;20066;-72
2021/05/20 03:16:50;;;;;;;0.55;0.20;;;;;;;20.00;47.42;101181.66;5011796;28;20018;-73
2021/05/20 03:19:15;;;;;;;0.60;0.30;;;;;;;20.00;47.67;101177.22;5011895;28;20089;-73
2021/05/20 03:21:41;;;;;;;0.20;0.20;;;;;;;19.99;47.54;101180.81;5012216;28;20030;-72
2021/05/20 03:24:07;;;;;;;0.70;0.40;;;;;;;20.00;46.79;101184.34;5012198;28;20046;-73
2021/05/20 03:26:32;;;;;;;0.40;0.20;;;;;;;19.99;47.66;101183.50;5010329;28;20022;-73
2021/05/20 03:28:58;;;;;;;0.57;0.30;;;;;;;19.99;46.96;101186.16;5011022;28;20628;-73
2021/05/20 03:31:23;;;;;;;0.30;0.30;;;;;;;19.99;47.01;101194.16;5012669;28;20058;-73
2021/05/20 03:33:49;;;;;;;0.47;0.20;;;;;;;20.00;46.82;101200.34;5011499;28;20026;-73
2021/05/20 03:36:14;;;;;;;0.43;0.30;;;;;;;19.99;47.46;101191.50;5011835;28;20026;-72
2021/05/20 03:38:40;;;;;;;0.57;0.40;;;;;;;19.97;47.09;101196.13;5011976;28;20503;-72
2021/05/20 03:41:05;;;;;;;0.90;0.40;;;;;;;19.99;47.12;101196.84;5012295;28;20404;-72
2021/05/20 03:43:37;;;;;;;0.63;0.35;;;;;;;19.98;47.29;101197.81;5010919;28;20481;-73
2021/05/20 03:46:03;;;;;;;0.30;0.30;;;;;;;19.98;46.80;101192.47;5011338;28;20034;-72
2021/05/20 03:48:29;;;;;;;0.35;0.30;;;;;;;19.98;47.28;101187.13;5010657;28;20157;-72
2021/05/20 03:50:56;;;;;;;0.30;0.20;;;;;;;19.97;47.18;101190.78;5011757;28;20026;-72
2021/05/20 03:53:21;;;;;;;0.45;0.30;;;;;;;19.97;47.30;101181.94;5003074;28;20131;-73
2021/05/20 03:55:48;;;;;;;0.65;0.28;;;;;;;19.98;47.10;101191.63;5009649;28;20057;-72
2021/05/20 03:58:14;;;;;;;0.90;0.30;;;;;;;19.97;47.62;101193.47;5009734;28;20108;-72
2021/05/20 04:00:39;;;;;;;0.30;0.30;;;;;;;19.96;47.60;101186.41;5011351;28;20077;-73
2021/05/20 04:03:04;;;;;;;0.47;0.30;;;;;;;19.95;47.39;101184.72;5010390;28;20034;-72
2021/05/20 04:05:30;;;;;;;0.68;0.40;;;;;;;19.96;47.55;101186.41;5009533;28;20080;-73
2021/05/20 04:07:55;;;;;;;0.40;0.30;;;;;;;19.95;47.16;101183.88;5010856;28;20033;-71
2021/05/20 04:10:20;;;;;;;0.68;0.40;;;;;;;19.96;47.58;101186.41;5010435;28;20052;-71
2021/05/20 04:12:46;;;;;;;0.70;0.30;;;;;;;19.96;47.61;101188.22;5011188;28;20022;-73
2021/05/20 04:15:11;;;;;;;0.47;0.30;;;;;;;19.97;47.45;101187.28;5009548;28;20075;-73
2021/05/20 04:17:37;;;;;;;0.68;0.30;;;;;;;19.96;47.60;101183.72;5009951;28;20824;-73
2021/05/20 04:20:03;;;;;;;0.85;0.50;;;;;;;19.96;47.39;101188.22;5010423;28;20156;-73
2021/05/20 04:22:28;;;;;;;0.20;0.20;;;;;;;19.98;47.31;101187.13;5010644;28;20034;-73
2021/05/20 04:24:53;;;;;;;0.30;0.28;;;;;;;19.95;47.16;101186.53;4992732;28;20033;-73
2021/05/20 04:27:19;;;;;;;0.60;0.38;;;;;;;19.97;47.20;101190.78;5010012;28;20040;-73
2021/05/20 04:29:44;;;;;;;0.30;0.30;;;;;;;19.97;47.52;101189.94;5011034;28;20018;-73
2021/05/20 04:32:09;;;;;;;0.55;0.30;;;;;;;19.97;46.87;101187.28;5010802;28;20108;-74
2021/05/20 04:34:35;;;;;;;0.50;0.20;;;;;;;20.00;47.38;101201.22;5008283;28;20026;-73
2021/05/20 04:37:00;;;;;;;0.57;0.30;;;;;;;19.97;47.72;101192.63;5010577;28;20388;-74
2021/05/20 04:39:26;;;;;;;1.63;0.32;;;;;;;20.01;47.40;101202.06;5009918;28;20034;-73
2021/05/20 04:41:51;;;;;;;0.75;0.40;;;;;;;20.01;47.33;101205.59;5003803;28;20038;-73
2021/05/20 04:44:16;;;;;;;0.70;0.32;;;;;;;20.00;47.49;101206.56;5009764;28;20044;-73
2021/05/20 04:46:42;;;;;;;0.73;0.30;;;;;;;20.01;47.37;101221.59;5006764;28;20424;-72
2021/05/20 04:49:12;;;;;;;0.38;0.22;;;;;;;20.02;47.50;101214.44;5010099;28;20033;-72
2021/05/20 04:51:42;;;;;;;0.93;0.32;;;;;;;20.02;47.19;101225.94;4999149;28;20461;-73
2021/05/20 04:54:07;;;;;;;;;;;;;;;20.01;47.67;101229.59;5008915;28;20026;-73
2021/05/20 04:56:32;;;;;;;1.25;0.35;;;;;;;20.01;47.62;101232.25;5010556;28;19924;-73
2021/05/20 04:58:58;;;;;;;0.57;0.40;;;;;;;20.02;47.34;101214.44;5007690;28;20438;-73
2021/05/20 05:01:23;;;;;;;2.42;0.65;;;;;;;20.02;47.22;101225.09;5009722;28;20190;-74
2021/05/20 05:03:48;;;;;;;0.93;0.50;;;;;;;20.00;47.24;101217.22;5008770;28;20448;-73
2021/05/20 05:06:14;;;;;;;0.40;0.32;;;;;;;20.01;47.36;101234.94;5009810;28;20133;-73
2021/05/20 05:08:39;;;;;;;0.40;0.30;;;;;;;20.02;47.75;101235.78;5009398;28;20030;-74
2021/05/20 05:11:04;;;;;;;0.50;0.30;;;;;;;20.01;47.00;101237.59;5007247;28;20532;-75
2021/05/20 05:13:29;;;;;;;0.52;0.35;;;;;;;20.01;47.67;101234.94;5008970;28;20463;-74
2021/05/20 05:15:56;;;;;;;0.80;0.43;;;;;;;20.01;47.40;101237.59;5009982;28;20547;-74
2021/05/20 05:18:21;;;;;;;0.50;0.30;;;;;;;20.02;47.17;101235.78;5008197;28;20041;-74
2021/05/20 05:20:47;;;;;;;0.38;0.30;;;;;;;20.01;47.46;101226.94;5009856;28;20022;-74
2021/05/20 05:23:12;;;;;;;0.65;0.25;;;;;;;20.01;47.04;101234.94;5008558;28;20452;-74
2021/05/20 05:25:37;;;;;;;0.82;0.30;;;;;;;20.00;47.21;101227.91;5009677;28;20033;-74
2021/05/20 05:28:03;;;;;;;0.20;0.20;;;;;;;20.01;46.95;101226.94;5010012;28;20033;-76
2021/05/20 05:30:28;;;;;;;0.52;0.30;;;;;;;20.01;46.73;101228.75;5009373;28;20038;-74
2021/05/20 05:32:54;;;;;;;1.17;0.40;;;;;;;20.03;46.83;101235.69;5009833;28;20021;-75
2021/05/20 05:35:19;;;;;;;1.17;0.50;;;;;;;20.05;47.62;101235.53;4991442;28;20045;-73
2021/05/20 05:37:44;;;;;;;0.88;0.40;;;;;;;20.04;47.33;101234.69;5008014;28;20058;-73
2021/05/20 05:40:10;;;;;;;0.77;0.40;;;;;;;20.05;47.40;101236.38;5008373;28;20050;-73
2021/05/20 05:42:35;;;;;;;1.23;0.30;;;;;;;20.04;46.91;101236.53;5008856;28;20441;-73
2021/05/20 05:45:01;;;;;;;0.47;0.25;;;;;;;20.05;47.46;101246.22;5009969;28;20540;-73
2021/05/20 05:47:26;;;;;;;0.67;0.40;;;;;;;20.03;47.27;101243.69;4661955;28;10000960;-73
2021/05/20 05:49:52;;;;;;;0.70;0.30;;;;;;;20.02;47.04;101247.28;4990052;28;20112;-74
2021/05/20 05:52:19;;;;;;;0.93;0.40;;;;;;;20.03;46.72;101249.00;5006498;28;20060;-76
2021/05/20 05:54:45;;;;;;;0.52;0.40;;;;;;;20.04;46.74;101244.53;5008397;28;20799;-72
2021/05/20 05:57:10;;;;;;;0.82;0.38;;;;;;;20.03;46.99;101242.81;5007550;28;20129;-73
2021/05/20 05:59:35;;;;;;;2.67;0.40;;;;;;;20.04;47.12;101248.03;5008719;28;20520;-73
2021/05/20 06:02:01;;;;;;;3.03;0.50;;;;;;;20.03;46.85;101246.34;4991867;28;20400;-74
2021/05/20 06:04:27;;;;;;;0.35;0.30;;;;;;;20.04;47.07;101242.69;4988571;28;20056;-74
2021/05/20 06:06:52;;;;;;;0.70;0.40;;;;;;;20.04;46.99;101241.84;4969238;28;20748;-75
2021/05/20 06:09:18;;;;;;;1.15;0.40;;;;;;;20.03;47.29;101246.34;4986139;28;20034;-74
2021/05/20 06:11:43;;;;;;;0.65;0.40;;;;;;;20.05;46.92;101248.88;4987521;28;20031;-74
2021/05/20 06:14:10;;;;;;;0.60;0.30;;;;;;;20.06;46.87;101250.56;4989029;28;20050;-74
2021/05/20 06:16:36;;;;;;;0.85;0.40;;;;;;;20.05;46.91;101251.53;4987469;28;20026;-74
2021/05/20 06:19:04;;;;;;;1.67;0.30;;;;;;;20.05;47.13;101243.53;4989811;28;20382;-74
2021/05/20 06:21:29;;;;;;;0.70;0.30;;;;;;;20.06;47.14;101253.25;5006993;28;20030;-74
2021/05/20 06:23:55;;;;;;;1.65;0.47;;;;;;;20.05;47.01;101255.06;5011979;28;20798;-74
2021/05/20 06:26:20;;;;;;;0.63;0.32;;;;;;;20.04;47.33;101261.38;5015246;28;20069;-74
2021/05/20 06:28:45;;;;;;;0.40;0.22;;;;;;;20.04;47.09;101255.19;4996328;28;20034;-74
2021/05/20 06:31:11;;;;;;;0.60;0.30;;;;;;;20.06;47.33;101267.44;5013467;28;20056;-74
2021/05/20 06:33:36;;;;;;;0.73;0.20;;;;;;;20.05;47.08;101256.88;5013753;28;20061;-74
2021/05/20 06:36:01;;;;;;;0.43;0.30;;;;;;;20.07;46.87;101265.63;5014586;28;20053;-74
2021/05/20 06:38:27;;;;;;;2.25;0.43;;;;;;;20.06;47.13;101263.91;4993922;28;20080;-73
2021/05/20 06:40:54;;;;;;;0.32;0.22;;;;;;;20.06;47.40;101256.75;4997845;28;20045;-74
2021/05/20 06:43:20;;;;;;;0.45;0.30;;;;;;;20.06;47.42;101261.25;5013363;28;20034;-74
2021/05/20 06:45:45;;;;;;;0.80;0.40;;;;;;;20.05;47.45;101264.91;5013095;28;20022;-74
2021/05/20 06:48:14;;;;;;;0.80;0.30;;;;;;;20.06;46.88;101262.09;5013712;28;20381;-73
2021/05/20 06:50:39;;;;;;;0.57;0.20;;;;;;;20.06;47.15;101264.75;5013113;28;20022;-74
2021/05/20 06:53:05;;;;;;;1.48;0.40;;;;;;;20.06;47.49;101259.41;5012894;28;20118;-74
2021/05/20 06:55:31;;;;;;;0.20;0.20;;;;;;;20.07;47.54;101263.81;5013258;28;20030;-74
2021/05/20 07:00:40;;;;;;;0.60;0.30;;;;;;;20.06;47.16;101256.75;5012333;28;20528;-74
2021/05/20 07:03:06;;;;;;;1.35;0.30;;;;;;;20.06;47.12;101262.09;5013247;28;20541;-74
2021/05/20 07:05:31;;;;;;;0.70;0.40;;;;;;;20.08;46.96;101265.50;4993873;28;20104;-74
2021/05/20 07:07:57;;;;;;;1.10;0.30;;;;;;;20.08;47.26;101262.00;5000466;28;20021;-74
2021/05/20 07:10:23;;;;;;;0.57;0.30;;;;;;;20.09;47.32;101269.00;4989684;28;20022;-74
2021/05/20 07:12:48;;;;;;;0.95;0.30;;;;;;;20.08;47.17;101264.66;5012605;28;20076;-74
2021/05/20 07:15:14;;;;;;;0.20;0.20;;;;;;;20.06;46.95;101259.41;4987730;28;20116;-74
2021/05/20 07:17:39;;;;;;;0.32;0.25;;;;;;;20.08;47.71;101262.84;5002132;28;20019;-74
2021/05/20 07:20:08;;;;;;;0.30;0.30;;;;;;;20.09;47.02;101267.19;4987242;28;20033;-74
2021/05/20 07:22:33;;;;;;;0.75;0.35;;;;;;;20.07;47.26;101260.28;5014501;28;20420;-74
2021/05/20 07:25:04;;;;;;;0.20;0.20;;;;;;;20.08;47.17;101265.50;5014413;28;20034;-75
2021/05/20 07:27:30;;;;;;;3.75;0.40;;;;;;;20.09;47.47;101261.00;4996864;28;20022;-75
2021/05/20 07:29:56;;;;;;;1.02;0.30;;;;;;;20.07;47.03;101263.81;4996888;28;20026;-76
2021/05/20 07:32:21;;;;;;;0.98;0.40;;;;;;;20.07;47.77;101268.31;5011494;28;20096;-74
2021/05/20 07:34:47;;;;;;;4.95;0.80;;;;;;;20.07;47.87;101268.31;5003483;28;20030;-74
2021/05/20 07:37:12;;;;;;;4.70;0.80;;;;;;;20.09;48.22;101264.53;5012949;28;20106;-73
2021/05/20 07:39:38;;;;;;;9.73;1.98;;;;;;;20.10;48.80;101260.03;5016365;28;20041;-73
2021/05/20 07:42:04;;;;;;;6.13;1.85;;;;;;;20.11;48.70;101267.94;5011505;28;20026;-73
2021/05/20 07:44:29;;;;;;;4.53;1.30;;;;;;;20.09;48.68;101263.69;5010643;28;20034;-73
2021/05/20 07:46:56;;;;;;;3.70;1.27;;;;;;;20.09;48.28;101271.69;5003967;28;20088;-73
2021/05/20 07:49:21;;;;;;;7.95;1.50;;;;;;;20.09;48.87;101269.00;4990594;28;20476;-73
2021/05/20 07:51:47;;;;;;;6.95;1.55;;;;;;;20.09;48.74;101267.19;5005151;28;20045;-73
2021/05/20 07:54:12;;;;;;;7.57;1.73;;;;;;;20.08;48.06;101267.31;5010785;28;20063;-73
2021/05/20 07:56:38;;;;;;;7.60;1.70;;;;;;;20.07;48.06;101261.16;5012082;28;20032;-73
2021/05/20 07:59:03;;;;;;;9.40;1.67;;;;;;;20.10;48.78;101260.03;5002844;28;20109;-73
2021/05/20 08:01:30;;;;;;;7.30;1.30;;;;;;;20.09;48.51;101264.53;5008461;28;20487;-73
2021/05/20 08:04:18;;;;;;;5.40;1.27;;;;;;;20.11;48.20;101269.75;4997250;28;20026;-73
2021/05/20 08:06:44;;;;;;;5.03;1.60;;;;;;;20.11;48.67;101264.41;5012400;28;20697;-73
2021/05/20 08:11:41;;;;;;;6.38;1.48;;;;;;;20.10;48.35;101262.69;4992805;28;20638;-73
2021/05/20 08:14:06;;;;;;;7.60;1.52;;;;;;;20.09;48.08;101261.84;5010136;28;20025;-73
2021/05/20 08:16:32;;;;;;;4.88;1.60;;;;;;;20.08;48.54;101262.84;4998455;28;20026;-73
2021/05/20 08:18:59;;;;;;;7.28;1.73;;;;;;;20.08;48.29;101264.66;5004047;28;20029;-73
2021/05/20 08:21:24;;;;;;;7.93;1.48;;;;;;;20.09;48.50;101263.69;4999405;28;20034;-73
2021/05/20 08:23:49;;;;;;;4.18;1.10;;;;;;;20.08;48.22;101268.16;5010101;28;20028;-73
2021/05/20 08:26:15;;;;;;;8.20;2.28;;;;;;;20.06;48.11;101262.09;5005832;28;20444;-73
2021/05/20 08:28:40;;;;;;;6.78;1.58;;;;;;;20.08;48.02;101256.66;5018111;28;20627;-73
2021/05/20 08:31:06;;;;;;;5.88;1.38;;;;;;;20.09;48.66;101256.50;5001935;28;20049;-73
2021/05/20 08:33:31;;;;;;;5.40;1.60;;;;;;;20.08;48.02;101249.50;5008705;28;20384;-73
2021/05/20 08:35:56;;;;;;;6.90;1.17;;;;;;;20.10;48.54;101252.91;4979233;28;20053;-75
2021/05/20 08:38:22;;;;;;;7.93;1.55;;;;;;;20.08;48.30;101246.81;5012361;28;20029;-73
2021/05/20 08:40:47;;;;;;;7.45;2.28;;;;;;;20.09;48.45;101250.34;5012724;28;20046;-73
2021/05/20 08:43:13;;;;;;;7.88;1.67;;;;;;;20.04;47.72;101253.38;5013127;28;20365;-73
2021/05/20 08:45:39;;;;;;;4.32;1.38;;;;;;;20.03;47.10;101242.81;5011921;28;20026;-73
2021/05/20 08:48:05;;;;;;;6.53;1.15;;;;;;;20.02;46.88;101247.28;4994750;28;20822;-73
2021/05/20 08:50:31;;;;;;;3.88;1.02;;;;;;;19.99;46.28;101249.34;5012959;28;20065;-73
2021/05/20 08:52:57;;;;;;;5.18;1.40;;;;;;;19.99;45.44;101252.03;5012389;28;20022;-73
2021/05/20 08:55:31;;;;;;;2.65;0.95;;;;;;;19.96;46.10;101247.75;5011946;28;20022;-73
2021/05/20 08:57:58;;;;;;;4.47;1.17;;;;;;;19.96;45.70;101245.09;5011813;28;20099;-73
2021/05/20 09:00:25;;;;;;;3.28;1.08;;;;;;;19.96;45.92;101233.59;4992035;28;20113;-73
2021/05/20 09:02:51;;;;;;;3.88;1.05;;;;;;;19.95;46.15;101234.56;4984722;28;20022;-73
2021/05/20 09:05:21;;;;;;;1.60;0.75;;;;;;;19.94;45.37;101232.88;5012812;28;20026;-73
2021/05/20 09:07:50;;;;;;;1.83;1.05;;;;;;;19.97;45.53;101229.97;5007704;28;20079;-74
2021/05/20 09:10:20;;;;;;;3.03;0.75;;;;;;;19.97;46.18;101232.63;5009929;28;20022;-73
2021/05/20 09:12:48;;;;;;;2.53;1.02;;;;;;;19.96;46.21;101233.59;5005831;28;20025;-74
2021/05/20 09:15:25;;;;;;;1.90;0.90;;;;;;;19.96;45.47;101228.25;5009363;28;20065;-71
2021/05/20 09:17:51;;;;;;;1.75;0.90;;;;;;;19.94;45.29;101227.53;5008977;28;20026;-73
2021/05/20 09:20:18;;;;;;;3.05;0.68;;;;;;;19.97;45.46;101235.31;5003488;28;20029;-72
2021/05/20 09:22:43;;;;;;;2.47;0.80;;;;;;;19.97;45.25;101233.47;5002210;28;20022;-73
2021/05/20 09:25:10;;;;;;;3.65;1.10;;;;;;;19.98;45.17;101237.00;5008930;28;20325;-72
2021/05/20 09:27:42;;;;;;;3.45;1.00;;;;;;;19.96;44.94;101223.75;5010189;28;20028;-72
2021/05/20 09:30:18;;;;;;;2.55;1.20;;;;;;;19.96;45.12;101230.91;5009927;28;20469;-72
2021/05/20 09:32:49;;;;;;;1.52;0.73;;;;;;;19.97;45.54;101227.31;5010292;28;20036;-72
2021/05/20 09:35:16;;;;;;;2.70;0.65;;;;;;;19.97;45.36;101232.63;5010793;28;20030;-72
2021/05/20 09:37:48;;;;;;;1.92;0.75;;;;;;;19.99;45.20;101234.19;5009992;28;20014;-73
2021/05/20 09:40:15;;;;;;;1.67;0.60;;;;;;;19.99;45.05;101228.00;5009521;28;20137;-73
2021/05/20 09:42:40;;;;;;;1.98;1.02;;;;;;;19.99;45.07;101228.84;5005892;28;20068;-73
2021/05/20 09:45:14;;;;;;;2.50;0.82;;;;;;;20.03;44.90;101226.78;5001029;28;20066;-71
2021/05/20 09:47:40;;;;;;;2.45;0.70;;;;;;;20.02;45.58;101230.44;5005229;28;20037;-71
2021/05/20 09:50:08;;;;;;;1.52;0.60;;;;;;;20.02;45.12;101220.59;4994765;28;20044;-72
2021/05/20 09:52:34;;;;;;;1.42;0.60;;;;;;;20.04;45.41;101217.84;4994140;28;20034;-72
2021/05/20 09:55:00;;;;;;;1.10;0.60;;;;;;;20.02;45.54;101209.09;5009684;28;20022;-72
2021/05/20 09:57:26;;;;;;;1.65;0.60;;;;;;;20.04;45.28;101212.50;5011018;28;20026;-72
2021/05/20 10:00:11;;;;;;;1.30;0.50;;;;;;;20.04;45.46;101228.50;5003928;28;20053;-72
2021/05/20 10:02:39;;;;;;;2.30;0.68;;;;;;;20.03;45.96;101222.34;5014252;28;20030;-72
2021/05/20 10:05:28;;;;;;;1.35;0.60;;;;;;;20.02;45.99;101220.59;4990348;28;20103;-72
2021/05/20 10:07:55;;;;;;;2.15;0.63;;;;;;;20.02;45.90;101211.75;5014982;28;20087;-72
2021/05/20 10:10:21;;;;;;;0.80;0.47;;;;;;;20.04;45.45;101212.50;4993229;28;20019;-72
2021/05/20 10:12:47;;;;;;;1.77;0.63;;;;;;;20.05;45.58;101211.53;4994381;28;20560;-72
2021/05/20 10:15:17;;;;;;;3.45;0.70;;;;;;;20.04;46.19;101205.34;5014299;28;20105;-72
2021/05/20 10:17:43;;;;;;;2.70;0.68;;;;;;;20.04;45.52;101202.69;5013826;28;20022;-72
2021/05/20 10:20:11;;;;;;;0.88;0.57;;;;;;;20.05;46.11;101211.53;5013809;28;20033;-72
2021/05/20 10:22:36;;;;;;;1.73;0.63;;;;;;;20.04;45.89;101207.16;5013697;28;20025;-72
2021/05/20 10:25:03;;;;;;;1.80;0.68;;;;;;;20.03;46.07;101200.97;5006929;28;20121;-72
2021/05/20 10:27:30;;;;;;;1.67;0.50;;;;;;;20.04;45.70;101204.50;4993328;28;20033;-72
2021/05/20 10:29:58;;;;;;;1.65;0.60;;;;;;;20.04;45.75;101194.66;4998476;28;20673;-72
2021/05/20 10:32:24;;;;;;;0.80;0.60;;;;;;;20.03;45.58;101200.09;5013676;28;20026;-72
2021/05/20 10:35:01;;;;;;;1.13;0.50;;;;;;;20.04;45.67;101199.16;4996399;28;20022;-72
2021/05/20 10:37:36;;;;;;;1.23;0.60;;;;;;;20.00;46.17;101201.22;5013615;28;20037;-72
2021/05/20 10:40:27;;;;;;;1.98;0.70;;;;;;;20.04;45.70;101193.81;5013474;28;22063;-72
2021/05/20 10:43:09;;;;;;;2.90;0.60;;;;;;;20.04;45.57;101193.81;5013054;28;20032;-72
2021/05/20 10:45:36;;;;;;;2.20;0.40;;;;;;;20.02;46.02;101193.94;5013933;28;20025;-72
2021/05/20 10:48:04;;;;;;;0.98;0.50;;;;;;;20.04;45.92;101188.50;5013423;28;20437;-72
2021/05/20 10:50:45;;;;;;;2.45;0.90;;;;;;;20.04;46.18;101185.81;5013743;28;20087;-72
2021/05/20 10:53:11;;;;;;;1.85;0.50;;;;;;;20.04;45.99;101177.81;5012782;28;20140;-72
2021/05/20 10:55:38;;;;;;;0.90;0.50;;;;;;;20.05;46.12;101176.84;5012620;28;20105;-72
2021/05/20 10:58:03;;;;;;;0.65;0.40;;;;;;;20.05;45.78;101187.50;5012844;28;20037;-72
2021/05/20 11:00:39;;;;;;;1.15;0.40;;;;;;;20.05;45.77;101185.69;5012797;28;20030;-72
2021/05/20 11:03:05;;;;;;;2.00;0.40;;;;;;;20.06;45.82;101167.84;4995824;28;20049;-72
2021/05/20 11:05:40;;;;;;;0.80;0.50;;;;;;;20.06;45.63;101170.53;5013814;28;20042;-72
2021/05/20 11:08:28;;;;;;;0.60;0.40;;;;;;;20.06;46.24;101170.53;5012184;28;20038;-72
2021/05/20 11:10:53;;;;;;;0.95;0.47;;;;;;;20.06;46.21;101173.19;4996070;28;20027;-72
2021/05/20 11:13:37;;;;;;;1.58;0.50;;;;;;;20.06;45.83;101174.03;5012819;28;20481;-72
2021/05/20 11:16:28;;;;;;;1.70;0.50;;;;;;;20.06;45.63;101168.69;5012394;28;20029;-72
2021/05/20 11:21:57;;;;;;;1.27;0.50;;;;;;;20.05;46.26;101172.34;5012043;28;20084;-72
2021/05/20 11:24:23;;;;;;;1.27;0.60;;;;;;;20.05;46.33;101172.34;5012583;28;20053;-72
2021/05/20 11:26:52;;;;;;;2.95;0.60;;;;;;;20.05;45.65;101171.50;5012163;28;20033;-72
2021/05/20 11:29:21;;;;;;;3.50;0.55;;;;;;;20.04;45.89;101162.66;5013467;28;20038;-72
2021/05/20 11:31:48;;;;;;;1.00;0.50;;;;;;;20.03;46.35;101166.28;5013449;28;20554;-71